sensor_id;sensor_type;location;lat;lon;timestamp;pressure;altitude;pressure_sealevel;temperature;humidity
83492;BME280;73661;56.120;12.302;2024-03-08T00:00:17;102707.09;;;4.39;51.98
83492;BME280;73661;56.120;12.302;2024-03-08T00:02:46;102715.56;;;4.36;52.14
83492;BME280;73661;56.120;12.302;2024-03-08T00:05:15;102712.06;;;4.36;52.51
83492;BME280;73661;56.120;12.302;2024-03-08T00:07:41;102705.00;;;4.33;52.44
83492;BME280;73661;56.120;12.302;2024-03-08T00:10:11;102699.56;;;4.29;51.92
83492;BME280;73661;56.120;12.302;2024-03-08T00:12:41;102699.16;;;4.23;51.82
83492;BME280;73661;56.120;12.302;2024-03-08T00:15:14;102703.22;;;4.19;51.94
83492;BME280;73661;56.120;12.302;2024-03-08T00:17:41;102700.72;;;4.21;51.95
83492;BME280;73661;56.120;12.302;2024-03-08T00:20:07;102704.81;;;4.17;51.84
83492;BME280;73661;56.120;12.302;2024-03-08T00:22:39;102700.75;;;4.07;51.89
83492;BME280;73661;56.120;12.302;2024-03-08T00:25:06;102704.25;;;3.95;52.22
83492;BME280;73661;56.120;12.302;2024-03-08T00:27:36;102699.06;;;3.81;52.55
83492;BME280;73661;56.120;12.302;2024-03-08T00:30:03;102696.78;;;3.86;53.32
83492;BME280;73661;56.120;12.302;2024-03-08T00:32:29;102693.00;;;3.81;53.51
83492;BME280;73661;56.120;12.302;2024-03-08T00:34:57;102689.91;;;3.87;52.99
83492;BME280;73661;56.120;12.302;2024-03-08T00:37:23;102692.22;;;3.82;52.78
83492;BME280;73661;56.120;12.302;2024-03-08T00:39:51;102683.47;;;3.93;53.35
83492;BME280;73661;56.120;12.302;2024-03-08T00:42:18;102686.66;;;3.76;53.24
83492;BME280;73661;56.120;12.302;2024-03-08T00:44:44;102684.47;;;3.82;53.72
83492;BME280;73661;56.120;12.302;2024-03-08T00:47:10;102681.50;;;3.89;53.50
83492;BME280;73661;56.120;12.302;2024-03-08T00:49:37;102674.13;;;3.69;53.70
83492;BME280;73661;56.120;12.302;2024-03-08T00:52:06;102684.25;;;3.79;53.99
83492;BME280;73661;56.120;12.302;2024-03-08T00:54:32;102680.28;;;3.84;53.65
83492;BME280;73661;56.120;12.302;2024-03-08T00:56:58;102676.59;;;3.80;52.98
83492;BME280;73661;56.120;12.302;2024-03-08T00:59:27;102675.91;;;3.70;52.91
83492;BME280;73661;56.120;12.302;2024-03-08T01:01:52;102671.41;;;3.67;52.51
83492;BME280;73661;56.120;12.302;2024-03-08T01:04:18;102657.44;;;3.64;52.50
83492;BME280;73661;56.120;12.302;2024-03-08T01:06:44;102665.34;;;3.53;53.13
83492;BME280;73661;56.120;12.302;2024-03-08T01:09:13;102666.16;;;3.52;53.46
83492;BME280;73661;56.120;12.302;2024-03-08T01:11:39;102671.22;;;3.51;53.45
83492;BME280;73661;56.120;12.302;2024-03-08T01:14:05;102659.19;;;3.38;53.39
83492;BME280;73661;56.120;12.302;2024-03-08T01:16:30;102657.91;;;3.45;52.69
83492;BME280;73661;56.120;12.302;2024-03-08T01:18:58;102657.91;;;3.45;52.89
83492;BME280;73661;56.120;12.302;2024-03-08T01:21:24;102648.66;;;3.35;52.80
83492;BME280;73661;56.120;12.302;2024-03-08T01:23:50;102651.13;;;3.34;52.87
83492;BME280;73661;56.120;12.302;2024-03-08T01:26:15;102642.31;;;3.30;52.83
83492;BME280;73661;56.120;12.302;2024-03-08T01:28:41;102652.53;;;3.28;52.46
83492;BME280;73661;56.120;12.302;2024-03-08T01:31:07;102641.06;;;3.12;52.28
83492;BME280;73661;56.120;12.302;2024-03-08T01:33:33;102640.59;;;3.17;52.01
83492;BME280;73661;56.120;12.302;2024-03-08T01:35:58;102641.38;;;3.16;52.20
83492;BME280;73661;56.120;12.302;2024-03-08T01:38:24;102639.38;;;3.12;51.97
83492;BME280;73661;56.120;12.302;2024-03-08T01:40:50;102645.22;;;3.10;52.37
83492;BME280;73661;56.120;12.302;2024-03-08T01:43:30;102634.91;;;3.10;52.27
83492;BME280;73661;56.120;12.302;2024-03-08T01:45:59;102631.53;;;3.11;52.60
83492;BME280;73661;56.120;12.302;2024-03-08T01:48:30;102621.91;;;3.08;52.37
83492;BME280;73661;56.120;12.302;2024-03-08T01:50:57;102623.81;;;3.11;52.39
83492;BME280;73661;56.120;12.302;2024-03-08T01:53:27;102619.53;;;3.11;51.84
83492;BME280;73661;56.120;12.302;2024-03-08T01:55:57;102621.41;;;3.14;52.42
83492;BME280;73661;56.120;12.302;2024-03-08T01:58:24;102619.06;;;3.17;51.96
83492;BME280;73661;56.120;12.302;2024-03-08T02:00:54;102614.88;;;3.19;52.23
83492;BME280;73661;56.120;12.302;2024-03-08T02:03:21;102609.41;;;3.14;52.55
83492;BME280;73661;56.120;12.302;2024-03-08T02:05:48;102604.78;;;3.22;52.62
83492;BME280;73661;56.120;12.302;2024-03-08T02:08:16;102602.97;;;3.21;52.52
83492;BME280;73661;56.120;12.302;2024-03-08T02:10:41;102600.78;;;3.14;52.45
83492;BME280;73661;56.120;12.302;2024-03-08T02:13:09;102604.25;;;3.01;52.87
83492;BME280;73661;56.120;12.302;2024-03-08T02:18:20;102599.47;;;3.07;53.69
83492;BME280;73661;56.120;12.302;2024-03-08T02:20:47;102601.06;;;2.80;54.29
83492;BME280;73661;56.120;12.302;2024-03-08T02:23:14;102593.38;;;2.93;54.17
83492;BME280;73661;56.120;12.302;2024-03-08T02:25:40;102601.91;;;2.92;53.95
83492;BME280;73661;56.120;12.302;2024-03-08T02:28:10;102594.47;;;2.84;53.87
83492;BME280;73661;56.120;12.302;2024-03-08T02:30:37;102604.91;;;2.98;53.47
83492;BME280;73661;56.120;12.302;2024-03-08T02:33:02;102585.13;;;2.86;54.24
83492;BME280;73661;56.120;12.302;2024-03-08T02:35:29;102591.44;;;3.03;53.42
83492;BME280;73661;56.120;12.302;2024-03-08T02:37:55;102592.44;;;3.05;52.80
83492;BME280;73661;56.120;12.302;2024-03-08T02:40:21;102591.84;;;3.09;52.94
83492;BME280;73661;56.120;12.302;2024-03-08T02:42:47;102591.84;;;3.09;53.01
83492;BME280;73661;56.120;12.302;2024-03-08T02:45:13;102587.50;;;3.08;52.04
83492;BME280;73661;56.120;12.302;2024-03-08T02:47:39;102578.94;;;3.09;52.88
83492;BME280;73661;56.120;12.302;2024-03-08T02:50:05;102577.25;;;2.96;52.30
83492;BME280;73661;56.120;12.302;2024-03-08T02:52:34;102575.66;;;2.73;52.90
83492;BME280;73661;56.120;12.302;2024-03-08T02:55:01;102568.34;;;2.79;52.70
83492;BME280;73661;56.120;12.302;2024-03-08T02:57:27;102568.97;;;2.75;52.84
83492;BME280;73661;56.120;12.302;2024-03-08T02:59:56;102561.31;;;2.52;53.47
83492;BME280;73661;56.120;12.302;2024-03-08T03:02:21;102559.34;;;2.11;54.88
83492;BME280;73661;56.120;12.302;2024-03-08T03:04:49;102566.03;;;2.21;54.96
83492;BME280;73661;56.120;12.302;2024-03-08T03:07:14;102559.78;;;2.17;54.02
83492;BME280;73661;56.120;12.302;2024-03-08T03:09:40;102561.56;;;2.18;54.10
83492;BME280;73661;56.120;12.302;2024-03-08T03:12:06;102563.16;;;1.09;57.96
83492;BME280;73661;56.120;12.302;2024-03-08T03:14:37;102559.75;;;0.53;61.59
83492;BME280;73661;56.120;12.302;2024-03-08T03:17:05;102559.41;;;0.82;61.07
83492;BME280;73661;56.120;12.302;2024-03-08T03:19:31;102546.97;;;1.22;60.13
83492;BME280;73661;56.120;12.302;2024-03-08T03:21:57;102556.44;;;1.11;61.44
83492;BME280;73661;56.120;12.302;2024-03-08T03:24:23;102551.19;;;1.68;58.85
83492;BME280;73661;56.120;12.302;2024-03-08T03:26:49;102552.28;;;0.90;60.50
83492;BME280;73661;56.120;12.302;2024-03-08T03:29:15;102555.91;;;0.36;63.43
83492;BME280;73661;56.120;12.302;2024-03-08T03:31:43;102547.75;;;0.08;64.37
83492;BME280;73661;56.120;12.302;2024-03-08T03:34:12;102550.84;;;0.04;65.83
83492;BME280;73661;56.120;12.302;2024-03-08T03:36:38;102548.88;;;0.12;65.34
83492;BME280;73661;56.120;12.302;2024-03-08T03:39:10;102539.22;;;1.10;61.84
83492;BME280;73661;56.120;12.302;2024-03-08T03:41:39;102536.25;;;1.87;59.24
83492;BME280;73661;56.120;12.302;2024-03-08T03:44:05;102537.84;;;2.10;58.21
83492;BME280;73661;56.120;12.302;2024-03-08T03:46:34;102538.25;;;2.28;57.38
83492;BME280;73661;56.120;12.302;2024-03-08T03:48:59;102539.06;;;2.40;56.64
83492;BME280;73661;56.120;12.302;2024-03-08T03:51:25;102518.88;;;2.46;56.10
83492;BME280;73661;56.120;12.302;2024-03-08T03:53:51;102530.19;;;2.49;55.23
83492;BME280;73661;56.120;12.302;2024-03-08T03:56:18;102524.69;;;2.56;55.78
83492;BME280;73661;56.120;12.302;2024-03-08T03:58:44;102531.56;;;2.43;54.95
83492;BME280;73661;56.120;12.302;2024-03-08T04:01:10;102532.09;;;2.51;54.82
83492;BME280;73661;56.120;12.302;2024-03-08T04:03:36;102523.59;;;2.40;54.77
83492;BME280;73661;56.120;12.302;2024-03-08T04:06:04;102525.19;;;2.38;54.17
83492;BME280;73661;56.120;12.302;2024-03-08T04:08:30;102526.34;;;2.30;53.77
83492;BME280;73661;56.120;12.302;2024-03-08T04:10:56;102517.56;;;2.40;54.34
83492;BME280;73661;56.120;12.302;2024-03-08T04:13:23;102528.00;;;2.41;53.98
83492;BME280;73661;56.120;12.302;2024-03-08T04:15:49;102531.56;;;2.43;53.92
83492;BME280;73661;56.120;12.302;2024-03-08T04:18:15;102522.56;;;2.50;53.22
83492;BME280;73661;56.120;12.302;2024-03-08T04:20:40;102524.25;;;2.50;53.58
83492;BME280;73661;56.120;12.302;2024-03-08T04:23:06;102518.44;;;2.40;52.73
83492;BME280;73661;56.120;12.302;2024-03-08T04:25:32;102519.84;;;2.35;53.21
83492;BME280;73661;56.120;12.302;2024-03-08T04:27:58;102511.00;;;2.32;52.90
83492;BME280;73661;56.120;12.302;2024-03-08T04:30:24;102515.50;;;2.34;53.38
83492;BME280;73661;56.120;12.302;2024-03-08T04:32:50;102515.50;;;2.34;53.25
83492;BME280;73661;56.120;12.302;2024-03-08T04:35:16;102514.00;;;2.38;53.14
83492;BME280;73661;56.120;12.302;2024-03-08T04:37:42;102513.91;;;2.36;52.49
83492;BME280;73661;56.120;12.302;2024-03-08T04:40:08;102508.22;;;2.29;52.67
83492;BME280;73661;56.120;12.302;2024-03-08T04:42:36;102511.41;;;2.13;52.74
83492;BME280;73661;56.120;12.302;2024-03-08T04:45:03;102499.56;;;2.15;52.73
83492;BME280;73661;56.120;12.302;2024-03-08T04:47:29;102504.09;;;2.19;53.33
83492;BME280;73661;56.120;12.302;2024-03-08T04:49:56;102500.19;;;2.24;53.05
83492;BME280;73661;56.120;12.302;2024-03-08T04:52:22;102501.97;;;2.25;52.76
83492;BME280;73661;56.120;12.302;2024-03-08T04:54:48;102501.75;;;2.22;53.15
83492;BME280;73661;56.120;12.302;2024-03-08T04:57:13;102491.56;;;2.24;52.72
83492;BME280;73661;56.120;12.302;2024-03-08T04:59:39;102494.31;;;2.27;52.84
83492;BME280;73661;56.120;12.302;2024-03-08T05:02:05;102491.88;;;2.28;52.54
83492;BME280;73661;56.120;12.302;2024-03-08T05:04:32;102488.41;;;2.28;52.73
83492;BME280;73661;56.120;12.302;2024-03-08T05:06:58;102490.84;;;2.26;52.11
83492;BME280;73661;56.120;12.302;2024-03-08T05:09:27;102489.66;;;2.21;52.55
83492;BME280;73661;56.120;12.302;2024-03-08T05:11:54;102486.59;;;2.27;52.30
83492;BME280;73661;56.120;12.302;2024-03-08T05:14:20;102484.72;;;2.24;52.68
83492;BME280;73661;56.120;12.302;2024-03-08T05:16:47;102487.47;;;2.27;52.81
83492;BME280;73661;56.120;12.302;2024-03-08T05:19:19;102487.16;;;2.34;52.51
83492;BME280;73661;56.120;12.302;2024-03-08T05:21:47;102488.94;;;2.35;51.70
83492;BME280;73661;56.120;12.302;2024-03-08T05:24:17;102488.78;;;2.34;52.38
83492;BME280;73661;56.120;12.302;2024-03-08T05:26:43;102486.72;;;2.28;52.44
83492;BME280;73661;56.120;12.302;2024-03-08T05:29:09;102486.63;;;2.02;52.66
83492;BME280;73661;56.120;12.302;2024-03-08T05:31:54;102486.03;;;2.06;52.40
83492;BME280;73661;56.120;12.302;2024-03-08T05:34:21;102488.34;;;2.14;52.45
83492;BME280;73661;56.120;12.302;2024-03-08T05:36:50;102486.44;;;2.12;52.56
83492;BME280;73661;56.120;12.302;2024-03-08T05:39:17;102485.78;;;2.14;52.57
83492;BME280;73661;56.120;12.302;2024-03-08T05:41:44;102484.53;;;2.21;52.34
83492;BME280;73661;56.120;12.302;2024-03-08T05:44:11;102477.88;;;2.25;51.87
83492;BME280;73661;56.120;12.302;2024-03-08T05:46:39;102486.13;;;2.32;52.47
83492;BME280;73661;56.120;12.302;2024-03-08T05:49:06;102477.50;;;2.32;51.89
83492;BME280;73661;56.120;12.302;2024-03-08T05:51:33;102482.00;;;2.34;51.72
83492;BME280;73661;56.120;12.302;2024-03-08T05:54:02;102489.72;;;2.34;52.15
83492;BME280;73661;56.120;12.302;2024-03-08T05:56:32;102479.81;;;2.40;52.09
83492;BME280;73661;56.120;12.302;2024-03-08T05:58:58;102471.41;;;2.43;52.03
83492;BME280;73661;56.120;12.302;2024-03-08T06:01:25;102480.81;;;2.42;52.12
83492;BME280;73661;56.120;12.302;2024-03-08T06:03:52;102480.19;;;2.33;52.40
83492;BME280;73661;56.120;12.302;2024-03-08T06:06:21;102471.00;;;2.37;52.00
83492;BME280;73661;56.120;12.302;2024-03-08T06:08:48;102480.03;;;2.43;52.52
83492;BME280;73661;56.120;12.302;2024-03-08T06:11:18;102483.63;;;2.59;52.11
83492;BME280;73661;56.120;12.302;2024-03-08T06:13:47;102471.38;;;2.68;51.98
83492;BME280;73661;56.120;12.302;2024-03-08T06:16:13;102471.16;;;2.78;51.92
83492;BME280;73661;56.120;12.302;2024-03-08T06:18:39;102471.38;;;2.81;52.20
83492;BME280;73661;56.120;12.302;2024-03-08T06:21:08;102473.56;;;2.88;52.27
83492;BME280;73661;56.120;12.302;2024-03-08T06:23:41;102475.75;;;2.82;51.82
83492;BME280;73661;56.120;12.302;2024-03-08T06:26:07;102469.69;;;2.82;52.85
83492;BME280;73661;56.120;12.302;2024-03-08T06:28:34;102475.91;;;2.72;52.89
83492;BME280;73661;56.120;12.302;2024-03-08T06:31:01;102473.75;;;2.78;53.44
83492;BME280;73661;56.120;12.302;2024-03-08T06:33:28;102468.28;;;3.00;52.90
83492;BME280;73661;56.120;12.302;2024-03-08T06:35:55;102463.44;;;3.18;53.08
83492;BME280;73661;56.120;12.302;2024-03-08T06:38:24;102468.19;;;3.38;52.92
83492;BME280;73661;56.120;12.302;2024-03-08T06:40:50;102466.38;;;3.50;52.97
83492;BME280;73661;56.120;12.302;2024-03-08T06:43:17;102461.06;;;3.75;52.95
83492;BME280;73661;56.120;12.302;2024-03-08T06:45:44;102457.59;;;4.03;53.05
83492;BME280;73661;56.120;12.302;2024-03-08T06:48:19;102467.16;;;4.19;53.13
83492;BME280;73661;56.120;12.302;2024-03-08T06:50:47;102471.94;;;4.13;53.24
83492;BME280;73661;56.120;12.302;2024-03-08T06:53:13;102465.09;;;4.28;53.12
83492;BME280;73661;56.120;12.302;2024-03-08T06:55:39;102460.88;;;4.43;53.27
83492;BME280;73661;56.120;12.302;2024-03-08T06:58:06;102465.47;;;4.34;53.94
83492;BME280;73661;56.120;12.302;2024-03-08T07:00:36;102460.97;;;4.02;54.51
83492;BME280;73661;56.120;12.302;2024-03-08T07:03:03;102465.66;;;4.37;54.44
83492;BME280;73661;56.120;12.302;2024-03-08T07:05:32;102466.47;;;4.80;53.37
83492;BME280;73661;56.120;12.302;2024-03-08T07:07:58;102458.53;;;4.92;52.95
83492;BME280;73661;56.120;12.302;2024-03-08T07:10:24;102464.59;;;5.69;52.51
83492;BME280;73661;56.120;12.302;2024-03-08T07:12:50;102468.34;;;6.07;52.09
83492;BME280;73661;56.120;12.302;2024-03-08T07:15:16;102463.81;;;6.19;51.46
83492;BME280;73661;56.120;12.302;2024-03-08T07:17:47;102454.31;;;5.40;53.44
83492;BME280;73661;56.120;12.302;2024-03-08T07:20:14;102468.09;;;5.86;52.74
83492;BME280;73661;56.120;12.302;2024-03-08T07:22:41;102464.00;;;6.22;52.55
83492;BME280;73661;56.120;12.302;2024-03-08T07:25:08;102450.09;;;6.38;52.32
83492;BME280;73661;56.120;12.302;2024-03-08T07:27:53;102461.06;;;6.67;52.01
83492;BME280;73661;56.120;12.302;2024-03-08T07:30:24;102452.44;;;6.84;51.70
83492;BME280;73661;56.120;12.302;2024-03-08T07:33:09;102458.38;;;7.17;51.28
83492;BME280;73661;56.120;12.302;2024-03-08T07:35:38;102454.66;;;7.67;51.64
83492;BME280;73661;56.120;12.302;2024-03-08T07:38:05;102447.97;;;7.91;51.41
83492;BME280;73661;56.120;12.302;2024-03-08T07:40:32;102446.59;;;7.80;50.62
83492;BME280;73661;56.120;12.302;2024-03-08T07:42:58;102442.66;;;8.29;50.01
83492;BME280;73661;56.120;12.302;2024-03-08T07:45:24;102454.72;;;8.07;50.05
83492;BME280;73661;56.120;12.302;2024-03-08T07:47:49;102453.00;;;8.27;50.49
83492;BME280;73661;56.120;12.302;2024-03-08T07:50:16;102447.53;;;8.21;50.61
83492;BME280;73661;56.120;12.302;2024-03-08T07:52:42;102440.84;;;7.87;50.54
83492;BME280;73661;56.120;12.302;2024-03-08T07:55:09;102444.25;;;8.25;50.83
83492;BME280;73661;56.120;12.302;2024-03-08T07:57:35;102443.50;;;8.28;50.80
83492;BME280;73661;56.120;12.302;2024-03-08T08:00:05;102447.81;;;8.08;51.84
83492;BME280;73661;56.120;12.302;2024-03-08T08:02:34;102440.84;;;8.26;51.14
83492;BME280;73661;56.120;12.302;2024-03-08T08:05:01;102441.28;;;7.97;52.10
83492;BME280;73661;56.120;12.302;2024-03-08T08:07:27;102435.81;;;8.10;52.16
83492;BME280;73661;56.120;12.302;2024-03-08T08:09:53;102445.50;;;8.14;52.84
83492;BME280;73661;56.120;12.302;2024-03-08T08:12:19;102443.66;;;8.31;52.82
83492;BME280;73661;56.120;12.302;2024-03-08T08:14:44;102452.63;;;8.37;53.42
83492;BME280;73661;56.120;12.302;2024-03-08T08:17:10;102442.00;;;8.33;52.67
83492;BME280;73661;56.120;12.302;2024-03-08T08:19:37;102446.50;;;8.98;53.39
83492;BME280;73661;56.120;12.302;2024-03-08T08:22:04;102444.47;;;7.34;56.08
83492;BME280;73661;56.120;12.302;2024-03-08T08:24:30;102448.59;;;8.65;54.83
83492;BME280;73661;56.120;12.302;2024-03-08T08:26:56;102438.25;;;8.66;54.20
83492;BME280;73661;56.120;12.302;2024-03-08T08:29:22;102443.94;;;9.65;53.63
83492;BME280;73661;56.120;12.302;2024-03-08T08:31:48;102450.06;;;7.24;58.47
83492;BME280;73661;56.120;12.302;2024-03-08T08:34:16;102447.53;;;8.02;56.83
83492;BME280;73661;56.120;12.302;2024-03-08T08:36:44;102447.31;;;9.18;56.13
83492;BME280;73661;56.120;12.302;2024-03-08T08:39:10;102446.09;;;8.47;56.52
83492;BME280;73661;56.120;12.302;2024-03-08T08:41:39;102447.22;;;8.13;58.96
83492;BME280;73661;56.120;12.302;2024-03-08T08:44:08;102431.28;;;9.09;56.35
83492;BME280;73661;56.120;12.302;2024-03-08T08:46:38;102430.16;;;8.20;56.07
83492;BME280;73661;56.120;12.302;2024-03-08T08:49:05;102430.38;;;8.05;56.91
83492;BME280;73661;56.120;12.302;2024-03-08T08:51:32;102423.38;;;8.85;55.21
83492;BME280;73661;56.120;12.302;2024-03-08T08:53:59;102430.88;;;8.16;55.77
83492;BME280;73661;56.120;12.302;2024-03-08T08:56:25;102423.75;;;8.12;55.10
83492;BME280;73661;56.120;12.302;2024-03-08T08:58:52;102430.94;;;9.67;51.13
83492;BME280;73661;56.120;12.302;2024-03-08T09:01:19;102414.91;;;11.06;48.41
83492;BME280;73661;56.120;12.302;2024-03-08T09:03:45;102420.09;;;10.26;50.81
83492;BME280;73661;56.120;12.302;2024-03-08T09:06:15;102420.28;;;10.08;49.04
83492;BME280;73661;56.120;12.302;2024-03-08T09:08:42;102417.81;;;9.41;50.31
83492;BME280;73661;56.120;12.302;2024-03-08T09:11:10;102410.13;;;10.93;46.40
83492;BME280;73661;56.120;12.302;2024-03-08T09:13:36;102404.19;;;9.96;47.88
83492;BME280;73661;56.120;12.302;2024-03-08T09:16:04;102411.16;;;9.49;51.07
83492;BME280;73661;56.120;12.302;2024-03-08T09:18:31;102399.66;;;11.78;46.78
83492;BME280;73661;56.120;12.302;2024-03-08T09:20:58;102392.72;;;12.78;43.96
83492;BME280;73661;56.120;12.302;2024-03-08T09:23:25;102396.19;;;12.09;44.39
83492;BME280;73661;56.120;12.302;2024-03-08T09:25:58;102387.91;;;10.51;45.76
83492;BME280;73661;56.120;12.302;2024-03-08T09:28:24;102387.25;;;11.12;45.38
83492;BME280;73661;56.120;12.302;2024-03-08T09:30:50;102386.25;;;12.64;42.17
83492;BME280;73661;56.120;12.302;2024-03-08T09:33:16;102386.72;;;12.14;46.72
83492;BME280;73661;56.120;12.302;2024-03-08T09:35:45;102377.84;;;12.09;47.08
83492;BME280;73661;56.120;12.302;2024-03-08T09:38:16;102376.31;;;12.85;46.54
83492;BME280;73661;56.120;12.302;2024-03-08T09:40:43;102382.31;;;13.19;47.26
83492;BME280;73661;56.120;12.302;2024-03-08T09:43:09;102374.59;;;14.58;44.15
83492;BME280;73661;56.120;12.302;2024-03-08T09:45:37;102376.94;;;13.13;43.58
83492;BME280;73661;56.120;12.302;2024-03-08T09:48:10;102369.69;;;13.82;41.85
83492;BME280;73661;56.120;12.302;2024-03-08T09:50:40;102377.22;;;12.51;41.00
83492;BME280;73661;56.120;12.302;2024-03-08T09:53:06;102377.47;;;11.64;48.00
83492;BME280;73661;56.120;12.302;2024-03-08T09:55:38;102366.69;;;11.53;46.86
83492;BME280;73661;56.120;12.302;2024-03-08T09:58:11;102372.47;;;11.73;46.66
83492;BME280;73661;56.120;12.302;2024-03-08T10:00:55;102371.97;;;11.26;48.27
83492;BME280;73661;56.120;12.302;2024-03-08T10:03:23;102367.50;;;11.22;47.98
83492;BME280;73661;56.120;12.302;2024-03-08T10:05:51;102370.72;;;11.13;48.65
83492;BME280;73661;56.120;12.302;2024-03-08T10:08:17;102368.78;;;10.27;50.06
83492;BME280;73661;56.120;12.302;2024-03-08T10:10:43;102362.28;;;11.52;47.79
83492;BME280;73661;56.120;12.302;2024-03-08T10:13:10;102361.97;;;11.11;48.77
83492;BME280;73661;56.120;12.302;2024-03-08T10:15:39;102352.94;;;11.90;46.99
83492;BME280;73661;56.120;12.302;2024-03-08T10:18:06;102360.00;;;12.98;44.53
83492;BME280;73661;56.120;12.302;2024-03-08T10:20:32;102364.31;;;11.91;45.51
83492;BME280;73661;56.120;12.302;2024-03-08T10:23:03;102355.47;;;12.55;45.48
83492;BME280;73661;56.120;12.302;2024-03-08T10:25:34;102348.84;;;12.35;46.00
83492;BME280;73661;56.120;12.302;2024-03-08T10:28:04;102350.50;;;13.85;43.19
83492;BME280;73661;56.120;12.302;2024-03-08T10:30:33;102346.72;;;14.69;42.75
83492;BME280;73661;56.120;12.302;2024-03-08T10:32:59;102343.75;;;14.48;41.83
83492;BME280;73661;56.120;12.302;2024-03-08T10:35:24;102349.28;;;14.14;43.62
83492;BME280;73661;56.120;12.302;2024-03-08T10:37:52;102350.78;;;13.16;43.38
83492;BME280;73661;56.120;12.302;2024-03-08T10:40:26;102349.25;;;12.17;45.86
83492;BME280;73661;56.120;12.302;2024-03-08T10:42:57;102345.75;;;11.83;48.75
83492;BME280;73661;56.120;12.302;2024-03-08T10:45:41;102345.84;;;11.86;49.03
83492;BME280;73661;56.120;12.302;2024-03-08T10:51:04;102341.41;;;9.66;52.37
83492;BME280;73661;56.120;12.302;2024-03-08T10:53:30;102345.78;;;9.21;55.08
83492;BME280;73661;56.120;12.302;2024-03-08T10:55:57;102337.00;;;10.66;49.37
83492;BME280;73661;56.120;12.302;2024-03-08T10:58:27;102331.56;;;10.32;51.02
83492;BME280;73661;56.120;12.302;2024-03-08T11:00:55;102341.09;;;9.57;52.86
83492;BME280;73661;56.120;12.302;2024-03-08T11:08:40;102332.47;;;12.43;47.57
83492;BME280;73661;56.120;12.302;2024-03-08T11:11:25;102334.34;;;10.64;51.19
83492;BME280;73661;56.120;12.302;2024-03-08T11:13:53;102333.88;;;11.64;47.44
83492;BME280;73661;56.120;12.302;2024-03-08T11:21:36;102323.09;;;11.54;49.63
83492;BME280;73661;56.120;12.302;2024-03-08T11:24:13;102326.31;;;10.85;49.46
83492;BME280;73661;56.120;12.302;2024-03-08T11:26:40;102328.72;;;9.29;52.66
83492;BME280;73661;56.120;12.302;2024-03-08T11:32:19;102313.31;;;11.16;51.45
83492;BME280;73661;56.120;12.302;2024-03-08T11:34:49;102318.72;;;10.66;51.62
83492;BME280;73661;56.120;12.302;2024-03-08T11:37:17;102308.94;;;10.07;52.67
83492;BME280;73661;56.120;12.302;2024-03-08T11:39:51;102309.63;;;10.02;51.93
83492;BME280;73661;56.120;12.302;2024-03-08T11:42:18;102307.25;;;10.09;52.82
83492;BME280;73661;56.120;12.302;2024-03-08T11:44:45;102304.94;;;10.98;50.11
83492;BME280;73661;56.120;12.302;2024-03-08T11:47:11;102306.22;;;8.85;51.82
83492;BME280;73661;56.120;12.302;2024-03-08T11:49:38;102306.28;;;8.86;53.74
83492;BME280;73661;56.120;12.302;2024-03-08T11:52:05;102300.91;;;10.52;50.83
83492;BME280;73661;56.120;12.302;2024-03-08T11:54:32;102294.38;;;10.95;47.83
83492;BME280;73661;56.120;12.302;2024-03-08T11:57:00;102287.28;;;12.16;47.84
83492;BME280;73661;56.120;12.302;2024-03-08T11:59:29;102289.53;;;13.12;42.72
83492;BME280;73661;56.120;12.302;2024-03-08T12:02:01;102280.66;;;9.94;48.65
83492;BME280;73661;56.120;12.302;2024-03-08T12:04:27;102280.84;;;9.99;51.16
83492;BME280;73661;56.120;12.302;2024-03-08T12:06:53;102287.28;;;8.66;53.69
83492;BME280;73661;56.120;12.302;2024-03-08T12:09:18;102273.19;;;11.14;48.43
83492;BME280;73661;56.120;12.302;2024-03-08T12:11:48;102277.97;;;10.99;49.79
83492;BME280;73661;56.120;12.302;2024-03-08T12:14:15;102280.19;;;9.31;51.37
83492;BME280;73661;56.120;12.302;2024-03-08T12:16:42;102263.91;;;10.13;51.28
83492;BME280;73661;56.120;12.302;2024-03-08T12:19:08;102273.28;;;9.09;50.53
83492;BME280;73661;56.120;12.302;2024-03-08T12:21:35;102260.03;;;10.54;48.27
83492;BME280;73661;56.120;12.302;2024-03-08T12:24:06;102267.72;;;9.00;50.48
83492;BME280;73661;56.120;12.302;2024-03-08T12:26:37;102251.13;;;9.44;51.24
83492;BME280;73661;56.120;12.302;2024-03-08T12:29:21;102260.44;;;9.38;51.63
83492;BME280;73661;56.120;12.302;2024-03-08T12:31:55;102251.00;;;10.43;49.81
83492;BME280;73661;56.120;12.302;2024-03-08T12:34:21;102247.50;;;11.00;46.58
83492;BME280;73661;56.120;12.302;2024-03-08T12:36:49;102252.81;;;9.93;49.24
83492;BME280;73661;56.120;12.302;2024-03-08T12:39:16;102243.66;;;11.17;47.02
83492;BME280;73661;56.120;12.302;2024-03-08T12:41:43;102244.69;;;10.94;47.00
83492;BME280;73661;56.120;12.302;2024-03-08T12:44:09;102236.97;;;10.14;47.22
83492;BME280;73661;56.120;12.302;2024-03-08T12:46:39;102234.50;;;10.73;46.53
83492;BME280;73661;56.120;12.302;2024-03-08T12:49:09;102235.00;;;9.31;46.80
83492;BME280;73661;56.120;12.302;2024-03-08T12:51:36;102233.66;;;10.45;44.99
83492;BME280;73661;56.120;12.302;2024-03-08T12:54:02;102233.97;;;8.79;49.84
83492;BME280;73661;56.120;12.302;2024-03-08T12:56:32;102232.03;;;9.96;48.54
83492;BME280;73661;56.120;12.302;2024-03-08T12:58:59;102228.72;;;9.25;50.67
83492;BME280;73661;56.120;12.302;2024-03-08T13:01:26;102222.91;;;10.36;49.28
83492;BME280;73661;56.120;12.302;2024-03-08T13:03:53;102224.50;;;11.83;45.72
83492;BME280;73661;56.120;12.302;2024-03-08T13:06:19;102230.91;;;9.63;50.00
83492;BME280;73661;56.120;12.302;2024-03-08T13:08:52;102229.69;;;9.77;49.64